sensor_id;sensor_type;location;lat;lon;timestamp;P1;durP1;ratioP1;P2;durP2;ratioP2
26407;SDS011;14583;43.604;1.364;2022-09-28T00:00:37;22.85;;;4.55;;
26407;SDS011;14583;43.604;1.364;2022-09-28T00:03:06;31.60;;;5.07;;
26407;SDS011;14583;43.604;1.364;2022-09-28T00:05:32;23.45;;;5.00;;
26407;SDS011;14583;43.604;1.364;2022-09-28T00:07:58;28.02;;;5.15;;
26407;SDS011;14583;43.604;1.364;2022-09-28T00:10:24;26.17;;;4.75;;
26407;SDS011;14583;43.604;1.364;2022-09-28T00:12:50;33.75;;;5.47;;
26407;SDS011;14583;43.604;1.364;2022-09-28T00:15:19;22.00;;;4.47;;
26407;SDS011;14583;43.604;1.364;2022-09-28T00:17:45;25.40;;;4.45;;
26407;SDS011;14583;43.604;1.364;2022-09-28T00:20:12;24.05;;;4.38;;
26407;SDS011;14583;43.604;1.364;2022-09-28T00:22:38;29.45;;;4.75;;
26407;SDS011;14583;43.604;1.364;2022-09-28T00:25:05;28.20;;;4.60;;
26407;SDS011;14583;43.604;1.364;2022-09-28T00:27:31;22.92;;;4.13;;
26407;SDS011;14583;43.604;1.364;2022-09-28T00:29:57;22.73;;;4.32;;
26407;SDS011;14583;43.604;1.364;2022-09-28T00:32:23;26.52;;;4.72;;
26407;SDS011;14583;43.604;1.364;2022-09-28T00:34:49;21.08;;;3.53;;
26407;SDS011;14583;43.604;1.364;2022-09-28T00:37:15;26.17;;;4.00;;
26407;SDS011;14583;43.604;1.364;2022-09-28T00:39:43;22.73;;;3.67;;
26407;SDS011;14583;43.604;1.364;2022-09-28T00:42:19;16.85;;;3.30;;
26407;SDS011;14583;43.604;1.364;2022-09-28T00:47:36;18.25;;;3.70;;
26407;SDS011;14583;43.604;1.364;2022-09-28T00:52:47;22.25;;;3.45;;
26407;SDS011;14583;43.604;1.364;2022-09-28T00:55:18;20.88;;;3.13;;
26407;SDS011;14583;43.604;1.364;2022-09-28T00:57:50;18.52;;;2.90;;
26407;SDS011;14583;43.604;1.364;2022-09-28T01:00:19;13.95;;;2.85;;
26407;SDS011;14583;43.604;1.364;2022-09-28T01:02:45;23.75;;;3.42;;
26407;SDS011;14583;43.604;1.364;2022-09-28T01:05:12;17.88;;;3.47;;
26407;SDS011;14583;43.604;1.364;2022-09-28T01:07:38;16.27;;;2.55;;
26407;SDS011;14583;43.604;1.364;2022-09-28T01:10:05;13.57;;;3.55;;
26407;SDS011;14583;43.604;1.364;2022-09-28T01:12:32;10.02;;;2.28;;
26407;SDS011;14583;43.604;1.364;2022-09-28T01:14:58;16.80;;;2.22;;
26407;SDS011;14583;43.604;1.364;2022-09-28T01:17:25;14.43;;;2.50;;
26407;SDS011;14583;43.604;1.364;2022-09-28T01:25:35;11.40;;;1.77;;
26407;SDS011;14583;43.604;1.364;2022-09-28T01:28:15;8.35;;;1.58;;
26407;SDS011;14583;43.604;1.364;2022-09-28T01:30:48;14.20;;;2.60;;
26407;SDS011;14583;43.604;1.364;2022-09-28T01:33:23;9.00;;;1.80;;
26407;SDS011;14583;43.604;1.364;2022-09-28T01:35:53;7.13;;;1.80;;
26407;SDS011;14583;43.604;1.364;2022-09-28T01:38:30;10.13;;;1.50;;
26407;SDS011;14583;43.604;1.364;2022-09-28T01:41:02;4.45;;;1.40;;
26407;SDS011;14583;43.604;1.364;2022-09-28T01:43:29;5.78;;;1.30;;
26407;SDS011;14583;43.604;1.364;2022-09-28T01:46:01;6.75;;;1.50;;
26407;SDS011;14583;43.604;1.364;2022-09-28T01:48:36;9.98;;;1.48;;
26407;SDS011;14583;43.604;1.364;2022-09-28T01:51:18;3.90;;;1.33;;
26407;SDS011;14583;43.604;1.364;2022-09-28T01:53:54;4.85;;;1.20;;
26407;SDS011;14583;43.604;1.364;2022-09-28T01:56:38;5.65;;;1.15;;
26407;SDS011;14583;43.604;1.364;2022-09-28T01:59:17;4.72;;;1.13;;
26407;SDS011;14583;43.604;1.364;2022-09-28T02:01:51;2.15;;;0.80;;
26407;SDS011;14583;43.604;1.364;2022-09-28T02:04:43;4.05;;;0.90;;
26407;SDS011;14583;43.604;1.364;2022-09-28T02:07:17;3.88;;;1.00;;
26407;SDS011;14583;43.604;1.364;2022-09-28T02:09:54;2.25;;;0.80;;
26407;SDS011;14583;43.604;1.364;2022-09-28T02:12:26;5.85;;;1.05;;
26407;SDS011;14583;43.604;1.364;2022-09-28T02:14:58;4.28;;;0.88;;
26407;SDS011;14583;43.604;1.364;2022-09-28T02:17:34;2.97;;;0.88;;
26407;SDS011;14583;43.604;1.364;2022-09-28T02:20:00;5.53;;;1.30;;
26407;SDS011;14583;43.604;1.364;2022-09-28T02:22:27;4.05;;;1.20;;
26407;SDS011;14583;43.604;1.364;2022-09-28T02:24:58;5.80;;;1.13;;
26407;SDS011;14583;43.604;1.364;2022-09-28T02:27:53;2.53;;;1.10;;
26407;SDS011;14583;43.604;1.364;2022-09-28T02:30:25;3.90;;;0.90;;
26407;SDS011;14583;43.604;1.364;2022-09-28T02:32:51;2.05;;;0.95;;
26407;SDS011;14583;43.604;1.364;2022-09-28T02:35:21;2.20;;;0.70;;
26407;SDS011;14583;43.604;1.364;2022-09-28T02:37:47;3.42;;;0.95;;
26407;SDS011;14583;43.604;1.364;2022-09-28T02:40:14;1.73;;;0.75;;
26407;SDS011;14583;43.604;1.364;2022-09-28T03:10:12;2.05;;;0.65;;
26407;SDS011;14583;43.604;1.364;2022-09-28T03:12:40;0.88;;;0.60;;
26407;SDS011;14583;43.604;1.364;2022-09-28T03:15:28;1.63;;;0.70;;
26407;SDS011;14583;43.604;1.364;2022-09-28T03:17:56;2.72;;;0.70;;
26407;SDS011;14583;43.604;1.364;2022-09-28T03:20:22;1.08;;;0.65;;
26407;SDS011;14583;43.604;1.364;2022-09-28T03:22:48;2.88;;;0.70;;
26407;SDS011;14583;43.604;1.364;2022-09-28T03:25:14;2.63;;;0.80;;
26407;SDS011;14583;43.604;1.364;2022-09-28T03:27:40;2.40;;;0.90;;
26407;SDS011;14583;43.604;1.364;2022-09-28T03:30:06;1.67;;;0.70;;
26407;SDS011;14583;43.604;1.364;2022-09-28T03:32:32;0.52;;;0.52;;
26407;SDS011;14583;43.604;1.364;2022-09-28T03:34:58;1.33;;;0.60;;
26407;SDS011;14583;43.604;1.364;2022-09-28T03:37:25;1.83;;;0.60;;
26407;SDS011;14583;43.604;1.364;2022-09-28T03:39:53;1.95;;;0.70;;
26407;SDS011;14583;43.604;1.364;2022-09-28T03:42:19;1.27;;;0.60;;
26407;SDS011;14583;43.604;1.364;2022-09-28T03:44:45;2.05;;;0.60;;
26407;SDS011;14583;43.604;1.364;2022-09-28T03:47:10;1.83;;;0.60;;
26407;SDS011;14583;43.604;1.364;2022-09-28T03:49:36;1.00;;;0.50;;
26407;SDS011;14583;43.604;1.364;2022-09-28T03:52:02;1.40;;;0.70;;
26407;SDS011;14583;43.604;1.364;2022-09-28T03:54:28;3.25;;;0.70;;
26407;SDS011;14583;43.604;1.364;2022-09-28T03:56:54;1.75;;;0.50;;
26407;SDS011;14583;43.604;1.364;2022-09-28T03:59:19;3.97;;;0.70;;
26407;SDS011;14583;43.604;1.364;2022-09-28T04:01:47;1.40;;;0.65;;
26407;SDS011;14583;43.604;1.364;2022-09-28T04:04:13;0.95;;;0.57;;
26407;SDS011;14583;43.604;1.364;2022-09-28T04:06:39;3.22;;;0.60;;
26407;SDS011;14583;43.604;1.364;2022-09-28T04:09:05;3.28;;;0.68;;
26407;SDS011;14583;43.604;1.364;2022-09-28T04:11:31;0.80;;;0.55;;
26407;SDS011;14583;43.604;1.364;2022-09-28T04:13:56;2.15;;;0.70;;
26407;SDS011;14583;43.604;1.364;2022-09-28T04:16:22;3.15;;;0.73;;
26407;SDS011;14583;43.604;1.364;2022-09-28T04:18:48;0.75;;;0.50;;
26407;SDS011;14583;43.604;1.364;2022-09-28T04:21:14;0.95;;;0.60;;
26407;SDS011;14583;43.604;1.364;2022-09-28T04:23:41;1.35;;;0.70;;
26407;SDS011;14583;43.604;1.364;2022-09-28T04:26:29;1.08;;;0.63;;
26407;SDS011;14583;43.604;1.364;2022-09-28T04:28:54;1.45;;;0.65;;
26407;SDS011;14583;43.604;1.364;2022-09-28T04:31:39;2.22;;;0.80;;
26407;SDS011;14583;43.604;1.364;2022-09-28T04:34:17;2.00;;;0.70;;
26407;SDS011;14583;43.604;1.364;2022-09-28T04:36:45;3.22;;;0.80;;
26407;SDS011;14583;43.604;1.364;2022-09-28T04:39:12;2.35;;;0.70;;
26407;SDS011;14583;43.604;1.364;2022-09-28T04:41:40;2.65;;;0.70;;
26407;SDS011;14583;43.604;1.364;2022-09-28T04:44:06;1.20;;;0.57;;
26407;SDS011;14583;43.604;1.364;2022-09-28T04:46:32;2.03;;;0.82;;
26407;SDS011;14583;43.604;1.364;2022-09-28T04:48:58;3.70;;;0.85;;
26407;SDS011;14583;43.604;1.364;2022-09-28T04:51:24;1.63;;;1.10;;
26407;SDS011;14583;43.604;1.364;2022-09-28T04:53:50;0.70;;;0.70;;
26407;SDS011;14583;43.604;1.364;2022-09-28T04:56:16;1.08;;;0.70;;
26407;SDS011;14583;43.604;1.364;2022-09-28T04:58:43;1.40;;;0.80;;
26407;SDS011;14583;43.604;1.364;2022-09-28T05:01:12;0.65;;;0.60;;
26407;SDS011;14583;43.604;1.364;2022-09-28T05:03:40;2.55;;;0.50;;
26407;SDS011;14583;43.604;1.364;2022-09-28T05:06:06;0.70;;;0.60;;
26407;SDS011;14583;43.604;1.364;2022-09-28T05:08:32;0.60;;;0.55;;
26407;SDS011;14583;43.604;1.364;2022-09-28T05:11:00;0.70;;;0.60;;
26407;SDS011;14583;43.604;1.364;2022-09-28T05:13:27;1.48;;;0.63;;
26407;SDS011;14583;43.604;1.364;2022-09-28T05:15:54;2.53;;;0.65;;
26407;SDS011;14583;43.604;1.364;2022-09-28T05:18:20;3.80;;;0.70;;
26407;SDS011;14583;43.604;1.364;2022-09-28T05:20:46;2.20;;;0.70;;
26407;SDS011;14583;43.604;1.364;2022-09-28T05:23:12;2.17;;;0.95;;
26407;SDS011;14583;43.604;1.364;2022-09-28T05:25:39;3.85;;;0.90;;
26407;SDS011;14583;43.604;1.364;2022-09-28T05:28:05;5.20;;;1.00;;
26407;SDS011;14583;43.604;1.364;2022-09-28T05:30:32;2.88;;;1.05;;
26407;SDS011;14583;43.604;1.364;2022-09-28T05:32:58;4.70;;;0.90;;
26407;SDS011;14583;43.604;1.364;2022-09-28T05:35:24;3.38;;;0.88;;
26407;SDS011;14583;43.604;1.364;2022-09-28T05:37:49;2.00;;;0.68;;
26407;SDS011;14583;43.604;1.364;2022-09-28T05:40:15;3.72;;;0.93;;
26407;SDS011;14583;43.604;1.364;2022-09-28T05:42:41;2.28;;;0.82;;
26407;SDS011;14583;43.604;1.364;2022-09-28T05:45:07;2.08;;;0.90;;
26407;SDS011;14583;43.604;1.364;2022-09-28T05:47:40;3.08;;;0.82;;
26407;SDS011;14583;43.604;1.364;2022-09-28T05:50:08;2.67;;;1.05;;
26407;SDS011;14583;43.604;1.364;2022-09-28T05:52:36;5.22;;;1.13;;
26407;SDS011;14583;43.604;1.364;2022-09-28T05:55:02;3.38;;;1.00;;
26407;SDS011;14583;43.604;1.364;2022-09-28T05:57:31;1.77;;;0.70;;
26407;SDS011;14583;43.604;1.364;2022-09-28T05:59:57;4.13;;;0.93;;
26407;SDS011;14583;43.604;1.364;2022-09-28T06:02:23;1.65;;;0.77;;
26407;SDS011;14583;43.604;1.364;2022-09-28T06:04:49;1.95;;;0.82;;
26407;SDS011;14583;43.604;1.364;2022-09-28T06:07:15;3.25;;;0.75;;
26407;SDS011;14583;43.604;1.364;2022-09-28T06:09:42;2.20;;;0.80;;
26407;SDS011;14583;43.604;1.364;2022-09-28T06:12:07;3.33;;;1.50;;
26407;SDS011;14583;43.604;1.364;2022-09-28T06:14:33;3.25;;;0.98;;
26407;SDS011;14583;43.604;1.364;2022-09-28T06:16:59;10.32;;;1.77;;
26407;SDS011;14583;43.604;1.364;2022-09-28T06:19:25;5.13;;;1.33;;
26407;SDS011;14583;43.604;1.364;2022-09-28T06:21:50;5.20;;;1.25;;
26407;SDS011;14583;43.604;1.364;2022-09-28T06:24:16;4.15;;;1.42;;
26407;SDS011;14583;43.604;1.364;2022-09-28T06:26:42;6.97;;;1.90;;
26407;SDS011;14583;43.604;1.364;2022-09-28T06:29:07;6.47;;;1.67;;
26407;SDS011;14583;43.604;1.364;2022-09-28T06:31:33;5.03;;;1.55;;
26407;SDS011;14583;43.604;1.364;2022-09-28T06:33:59;6.57;;;1.75;;
26407;SDS011;14583;43.604;1.364;2022-09-28T06:36:27;5.13;;;1.52;;
26407;SDS011;14583;43.604;1.364;2022-09-28T06:38:55;5.88;;;1.30;;
26407;SDS011;14583;43.604;1.364;2022-09-28T06:41:21;9.65;;;1.48;;
26407;SDS011;14583;43.604;1.364;2022-09-28T06:43:47;5.60;;;1.40;;
26407;SDS011;14583;43.604;1.364;2022-09-28T06:46:12;8.13;;;1.58;;
26407;SDS011;14583;43.604;1.364;2022-09-28T06:48:38;7.90;;;2.03;;
26407;SDS011;14583;43.604;1.364;2022-09-28T06:51:04;6.28;;;1.77;;
26407;SDS011;14583;43.604;1.364;2022-09-28T06:53:30;10.75;;;2.28;;
26407;SDS011;14583;43.604;1.364;2022-09-28T06:55:56;6.40;;;1.70;;
26407;SDS011;14583;43.604;1.364;2022-09-28T06:58:22;9.43;;;1.70;;
26407;SDS011;14583;43.604;1.364;2022-09-28T07:00:49;7.00;;;1.80;;
26407;SDS011;14583;43.604;1.364;2022-09-28T07:03:19;10.63;;;1.83;;
26407;SDS011;14583;43.604;1.364;2022-09-28T07:05:47;3.30;;;1.40;;
26407;SDS011;14583;43.604;1.364;2022-09-28T07:08:14;8.77;;;1.75;;
26407;SDS011;14583;43.604;1.364;2022-09-28T07:10:44;3.20;;;1.30;;
26407;SDS011;14583;43.604;1.364;2022-09-28T07:13:12;7.97;;;1.42;;
26407;SDS011;14583;43.604;1.364;2022-09-28T07:15:39;6.05;;;1.40;;
26407;SDS011;14583;43.604;1.364;2022-09-28T07:18:06;8.02;;;1.60;;
26407;SDS011;14583;43.604;1.364;2022-09-28T07:20:33;4.78;;;1.45;;
26407;SDS011;14583;43.604;1.364;2022-09-28T07:23:00;5.57;;;1.50;;
26407;SDS011;14583;43.604;1.364;2022-09-28T07:25:28;3.25;;;1.40;;
26407;SDS011;14583;43.604;1.364;2022-09-28T07:28:03;9.07;;;2.78;;
26407;SDS011;14583;43.604;1.364;2022-09-28T07:30:30;6.55;;;1.90;;
26407;SDS011;14583;43.604;1.364;2022-09-28T07:32:59;11.40;;;2.15;;
26407;SDS011;14583;43.604;1.364;2022-09-28T07:35:25;6.22;;;2.17;;
26407;SDS011;14583;43.604;1.364;2022-09-28T07:37:58;12.20;;;4.47;;
26407;SDS011;14583;43.604;1.364;2022-09-28T07:40:28;9.65;;;6.55;;
26407;SDS011;14583;43.604;1.364;2022-09-28T07:43:13;16.63;;;14.60;;
26407;SDS011;14583;43.604;1.364;2022-09-28T07:45:41;20.52;;;18.08;;
26407;SDS011;14583;43.604;1.364;2022-09-28T07:48:08;12.32;;;11.02;;
26407;SDS011;14583;43.604;1.364;2022-09-28T07:50:33;4.68;;;3.45;;
26407;SDS011;14583;43.604;1.364;2022-09-28T07:52:59;7.80;;;3.50;;
26407;SDS011;14583;43.604;1.364;2022-09-28T07:55:25;5.45;;;1.67;;
26407;SDS011;14583;43.604;1.364;2022-09-28T07:57:57;3.47;;;1.10;;
26407;SDS011;14583;43.604;1.364;2022-09-28T08:00:26;6.13;;;1.40;;
26407;SDS011;14583;43.604;1.364;2022-09-28T08:02:53;2.60;;;1.20;;
26407;SDS011;14583;43.604;1.364;2022-09-28T08:05:19;4.75;;;1.25;;
26407;SDS011;14583;43.604;1.364;2022-09-28T08:07:45;3.80;;;1.20;;
26407;SDS011;14583;43.604;1.364;2022-09-28T08:10:10;2.75;;;1.33;;
26407;SDS011;14583;43.604;1.364;2022-09-28T08:12:36;7.30;;;2.03;;
26407;SDS011;14583;43.604;1.364;2022-09-28T08:15:05;7.53;;;1.67;;
26407;SDS011;14583;43.604;1.364;2022-09-28T08:17:34;7.32;;;1.67;;
26407;SDS011;14583;43.604;1.364;2022-09-28T08:20:00;7.22;;;1.73;;
26407;SDS011;14583;43.604;1.364;2022-09-28T08:22:44;9.27;;;2.10;;
26407;SDS011;14583;43.604;1.364;2022-09-28T08:25:10;9.63;;;2.53;;
26407;SDS011;14583;43.604;1.364;2022-09-28T08:27:36;11.20;;;2.25;;
26407;SDS011;14583;43.604;1.364;2022-09-28T08:30:01;9.15;;;2.15;;
26407;SDS011;14583;43.604;1.364;2022-09-28T08:32:27;11.07;;;2.20;;
26407;SDS011;14583;43.604;1.364;2022-09-28T08:34:53;14.68;;;2.55;;
26407;SDS011;14583;43.604;1.364;2022-09-28T08:37:20;9.57;;;2.40;;
26407;SDS011;14583;43.604;1.364;2022-09-28T08:39:45;12.05;;;2.38;;
26407;SDS011;14583;43.604;1.364;2022-09-28T08:42:33;11.63;;;2.45;;
26407;SDS011;14583;43.604;1.364;2022-09-28T08:45:10;10.25;;;2.30;;
26407;SDS011;14583;43.604;1.364;2022-09-28T08:50:30;13.32;;;2.30;;
26407;SDS011;14583;43.604;1.364;2022-09-28T08:52:58;15.88;;;2.50;;
26407;SDS011;14583;43.604;1.364;2022-09-28T08:55:37;12.32;;;3.38;;
26407;SDS011;14583;43.604;1.364;2022-09-28T08:58:08;18.73;;;3.08;;
26407;SDS011;14583;43.604;1.364;2022-09-28T09:00:39;12.75;;;3.42;;
26407;SDS011;14583;43.604;1.364;2022-09-28T09:03:11;16.98;;;3.38;;
26407;SDS011;14583;43.604;1.364;2022-09-28T09:19:26;15.60;;;3.10;;
26407;SDS011;14583;43.604;1.364;2022-09-28T09:25:00;13.38;;;3.05;;
26407;SDS011;14583;43.604;1.364;2022-09-28T09:30:23;12.02;;;3.00;;
26407;SDS011;14583;43.604;1.364;2022-09-28T09:33:12;15.48;;;3.20;;
26407;SDS011;14583;43.604;1.364;2022-09-28T09:39:20;13.77;;;2.67;;
26407;SDS011;14583;43.604;1.364;2022-09-28T09:47:35;12.13;;;2.70;;
26407;SDS011;14583;43.604;1.364;2022-09-28T09:55:45;13.60;;;2.70;;
26407;SDS011;14583;43.604;1.364;2022-09-28T10:00:46;18.42;;;2.35;;
26407;SDS011;14583;43.604;1.364;2022-09-28T10:03:25;11.65;;;2.08;;
26407;SDS011;14583;43.604;1.364;2022-09-28T10:06:04;5.65;;;1.90;;
26407;SDS011;14583;43.604;1.364;2022-09-28T10:08:39;6.38;;;1.90;;
26407;SDS011;14583;43.604;1.364;2022-09-28T10:11:16;9.20;;;2.15;;
26407;SDS011;14583;43.604;1.364;2022-09-28T10:13:45;11.40;;;2.42;;
26407;SDS011;14583;43.604;1.364;2022-09-28T10:16:12;12.90;;;3.10;;
26407;SDS011;14583;43.604;1.364;2022-09-28T10:18:39;9.52;;;3.13;;
26407;SDS011;14583;43.604;1.364;2022-09-28T10:21:05;13.10;;;2.85;;
26407;SDS011;14583;43.604;1.364;2022-09-28T10:23:31;12.35;;;2.75;;
26407;SDS011;14583;43.604;1.364;2022-09-28T10:26:04;13.65;;;2.75;;
26407;SDS011;14583;43.604;1.364;2022-09-28T10:28:54;11.10;;;2.80;;
26407;SDS011;14583;43.604;1.364;2022-09-28T10:31:33;13.60;;;2.88;;
26407;SDS011;14583;43.604;1.364;2022-09-28T10:34:06;13.90;;;3.08;;
26407;SDS011;14583;43.604;1.364;2022-09-28T10:36:41;15.80;;;3.45;;
26407;SDS011;14583;43.604;1.364;2022-09-28T10:42:27;12.50;;;3.42;;
26407;SDS011;14583;43.604;1.364;2022-09-28T10:44:58;22.73;;;3.55;;
26407;SDS011;14583;43.604;1.364;2022-09-28T10:47:29;14.43;;;2.78;;
26407;SDS011;14583;43.604;1.364;2022-09-28T10:49:56;14.85;;;3.22;;
26407;SDS011;14583;43.604;1.364;2022-09-28T10:55:27;11.50;;;2.13;;
26407;SDS011;14583;43.604;1.364;2022-09-28T10:57:51;11.80;;;2.28;;
26407;SDS011;14583;43.604;1.364;2022-09-28T11:02:54;3.22;;;1.23;;
26407;SDS011;14583;43.604;1.364;2022-09-28T11:05:21;3.75;;;1.40;;
26407;SDS011;14583;43.604;1.364;2022-09-28T11:07:53;3.15;;;1.30;;
26407;SDS011;14583;43.604;1.364;2022-09-28T11:10:27;3.80;;;1.17;;
26407;SDS011;14583;43.604;1.364;2022-09-28T11:12:55;5.45;;;1.58;;
26407;SDS011;14583;43.604;1.364;2022-09-28T11:15:24;3.17;;;1.48;;
26407;SDS011;14583;43.604;1.364;2022-09-28T11:18:16;5.60;;;1.95;;
26407;SDS011;14583;43.604;1.364;2022-09-28T11:23:37;3.90;;;1.23;;
26407;SDS011;14583;43.604;1.364;2022-09-28T11:26:05;5.38;;;1.40;;
26407;SDS011;14583;43.604;1.364;2022-09-28T11:28:34;5.25;;;1.42;;
26407;SDS011;14583;43.604;1.364;2022-09-28T11:31:01;7.25;;;1.83;;
26407;SDS011;14583;43.604;1.364;2022-09-28T11:36:04;2.72;;;1.00;;
26407;SDS011;14583;43.604;1.364;2022-09-28T11:38:39;3.97;;;1.30;;
26407;SDS011;14583;43.604;1.364;2022-09-28T11:52:36;2.25;;;1.05;;
26407;SDS011;14583;43.604;1.364;2022-09-28T11:55:12;6.40;;;1.50;;
26407;SDS011;14583;43.604;1.364;2022-09-28T11:58:39;5.82;;;1.70;;
26407;SDS011;14583;43.604;1.364;2022-09-28T12:00:49;5.57;;;1.50;;
26407;SDS011;14583;43.604;1.364;2022-09-28T12:03:41;3.95;;;1.33;;
26407;SDS011;14583;43.604;1.364;2022-09-28T12:06:13;6.60;;;1.42;;
26407;SDS011;14583;43.604;1.364;2022-09-28T12:08:45;4.43;;;1.05;;
26407;SDS011;14583;43.604;1.364;2022-09-28T12:11:22;10.45;;;1.67;;
26407;SDS011;14583;43.604;1.364;2022-09-28T12:13:56;7.40;;;1.63;;
26407;SDS011;14583;43.604;1.364;2022-09-28T12:16:35;8.15;;;2.33;;
26407;SDS011;14583;43.604;1.364;2022-09-28T12:19:32;9.40;;;1.83;;
26407;SDS011;14583;43.604;1.364;2022-09-28T12:22:07;4.93;;;1.50;;
26407;SDS011;14583;43.604;1.364;2022-09-28T12:24:43;8.20;;;1.80;;
26407;SDS011;14583;43.604;1.364;2022-09-28T12:32:47;4.13;;;1.20;;
26407;SDS011;14583;43.604;1.364;2022-09-28T12:37:57;4.90;;;1.10;;
26407;SDS011;14583;43.604;1.364;2022-09-28T12:40:50;4.18;;;0.95;;
26407;SDS011;14583;43.604;1.364;2022-09-28T12:43:28;2.75;;;0.80;;
26407;SDS011;14583;43.604;1.364;2022-09-28T13:00:04;1.23;;;0.60;;
26407;SDS011;14583;43.604;1.364;2022-09-28T13:16:49;1.70;;;0.70;;
26407;SDS011;14583;43.604;1.364;2022-09-28T13:25:14;2.78;;;1.02;;
26407;SDS011;14583;43.604;1.364;2022-09-28T13:27:54;4.13;;;1.27;;
26407;SDS011;14583;43.604;1.364;2022-09-28T13:30:25;3.38;;;0.90;;
26407;SDS011;14583;43.604;1.364;2022-09-28T13:32:55;4.35;;;1.13;;
26407;SDS011;14583;43.604;1.364;2022-09-28T13:35:23;5.05;;;1.52;;
26407;SDS011;14583;43.604;1.364;2022-09-28T13:38:27;4.60;;;1.45;;
26407;SDS011;14583;43.604;1.364;2022-09-28T13:41:23;7.38;;;1.70;;
26407;SDS011;14583;43.604;1.364;2022-09-28T13:43:34;4.53;;;1.50;;
26407;SDS011;14583;43.604;1.364;2022-09-28T13:46:20;6.78;;;2.00;;
26407;SDS011;14583;43.604;1.364;2022-09-28T13:51:45;4.57;;;1.58;;
26407;SDS011;14583;43.604;1.364;2022-09-28T13:56:55;4.65;;;1.67;;
26407;SDS011;14583;43.604;1.364;2022-09-28T14:00:27;7.70;;;2.08;;
26407;SDS011;14583;43.604;1.364;2022-09-28T14:02:38;5.30;;;1.52;;
26407;SDS011;14583;43.604;1.364;2022-09-28T14:16:35;3.42;;;1.10;;
26407;SDS011;14583;43.604;1.364;2022-09-28T14:19:06;8.43;;;1.60;;
26407;SDS011;14583;43.604;1.364;2022-09-28T14:33:16;5.53;;;1.55;;
26407;SDS011;14583;43.604;1.364;2022-09-28T14:35:52;4.22;;;1.27;;
26407;SDS011;14583;43.604;1.364;2022-09-28T14:38:21;3.42;;;1.02;;
26407;SDS011;14583;43.604;1.364;2022-09-28T14:41:34;5.05;;;1.10;;
26407;SDS011;14583;43.604;1.364;2022-09-28T14:46:33;4.32;;;1.20;;
26407;SDS011;14583;43.604;1.364;2022-09-28T14:49:04;5.43;;;1.38;;
26407;SDS011;14583;43.604;1.364;2022-09-28T14:51:44;5.90;;;1.50;;
26407;SDS011;14583;43.604;1.364;2022-09-28T14:54:27;8.50;;;1.45;;
26407;SDS011;14583;43.604;1.364;2022-09-28T14:59:37;9.88;;;1.83;;
26407;SDS011;14583;43.604;1.364;2022-09-28T15:04:40;4.47;;;1.45;;
26407;SDS011;14583;43.604;1.364;2022-09-28T15:07:21;9.00;;;1.55;;
26407;SDS011;14583;43.604;1.364;2022-09-28T15:09:56;9.13;;;1.90;;
26407;SDS011;14583;43.604;1.364;2022-09-28T15:12:26;7.13;;;1.70;;
26407;SDS011;14583;43.604;1.364;2022-09-28T15:15:02;7.55;;;1.67;;
26407;SDS011;14583;43.604;1.364;2022-09-28T15:17:32;5.50;;;1.45;;
26407;SDS011;14583;43.604;1.364;2022-09-28T15:22:28;10.30;;;1.75;;
26407;SDS011;14583;43.604;1.364;2022-09-28T15:27:21;7.93;;;1.85;;
26407;SDS011;14583;43.604;1.364;2022-09-28T15:30:22;7.03;;;1.70;;
26407;SDS011;14583;43.604;1.364;2022-09-28T15:32:53;5.82;;;1.60;;
26407;SDS011;14583;43.604;1.364;2022-09-28T15:35:40;5.60;;;1.48;;
26407;SDS011;14583;43.604;1.364;2022-09-28T15:38:08;5.43;;;1.92;;
26407;SDS011;14583;43.604;1.364;2022-09-28T15:40:41;8.88;;;2.03;;
26407;SDS011;14583;43.604;1.364;2022-09-28T15:43:27;5.70;;;1.60;;
26407;SDS011;14583;43.604;1.364;2022-09-28T15:46:06;7.05;;;1.85;;
26407;SDS011;14583;43.604;1.364;2022-09-28T15:51:17;7.45;;;1.67;;
26407;SDS011;14583;43.604;1.364;2022-09-28T15:53:53;7.13;;;2.00;;
26407;SDS011;14583;43.604;1.364;2022-09-28T15:56:22;8.95;;;2.17;;
26407;SDS011;14583;43.604;1.364;2022-09-28T15:59:07;8.30;;;1.92;;
26407;SDS011;14583;43.604;1.364;2022-09-28T16:01:45;11.68;;;1.85;;
26407;SDS011;14583;43.604;1.364;2022-09-28T16:12:44;10.55;;;2.47;;
26407;SDS011;14583;43.604;1.364;2022-09-28T16:15:22;9.45;;;1.60;;
26407;SDS011;14583;43.604;1.364;2022-09-28T16:17:54;11.48;;;2.13;;
26407;SDS011;14583;43.604;1.364;2022-09-28T16:31:02;8.18;;;2.10;;
26407;SDS011;14583;43.604;1.364;2022-09-28T16:33:38;7.82;;;2.15;;
26407;SDS011;14583;43.604;1.364;2022-09-28T16:36:04;6.80;;;2.08;;
26407;SDS011;14583;43.604;1.364;2022-09-28T16:38:36;10.93;;;1.88;;
26407;SDS011;14583;43.604;1.364;2022-09-28T16:41:03;10.85;;;2.50;;
26407;SDS011;14583;43.604;1.364;2022-09-28T16:43:30;10.30;;;2.33;;
26407;SDS011;14583;43.604;1.364;2022-09-28T16:46:09;9.10;;;2.40;;
26407;SDS011;14583;43.604;1.364;2022-09-28T16:48:44;8.88;;;3.08;;
26407;SDS011;14583;43.604;1.364;2022-09-28T16:51:15;14.55;;;3.03;;
26407;SDS011;14583;43.604;1.364;2022-09-28T16:53:42;9.38;;;2.47;;
26407;SDS011;14583;43.604;1.364;2022-09-28T16:56:27;8.75;;;2.38;;
26407;SDS011;14583;43.604;1.364;2022-09-28T16:58:53;7.63;;;1.80;;
26407;SDS011;14583;43.604;1.364;2022-09-28T17:01:20;12.63;;;2.50;;
26407;SDS011;14583;43.604;1.364;2022-09-28T17:03:46;10.40;;;2.03;;
26407;SDS011;14583;43.604;1.364;2022-09-28T17:06:14;11.48;;;2.85;;
26407;SDS011;14583;43.604;1.364;2022-09-28T17:08:44;10.10;;;2.63;;
26407;SDS011;14583;43.604;1.364;2022-09-28T17:11:14;9.57;;;2.60;;
26407;SDS011;14583;43.604;1.364;2022-09-28T17:13:44;12.32;;;2.22;;
26407;SDS011;14583;43.604;1.364;2022-09-28T17:16:14;17.40;;;5.03;;
26407;SDS011;14583;43.604;1.364;2022-09-28T17:18:43;8.52;;;2.42;;
26407;SDS011;14583;43.604;1.364;2022-09-28T17:21:13;14.65;;;4.90;;
26407;SDS011;14583;43.604;1.364;2022-09-28T17:23:42;27.55;;;7.63;;
26407;SDS011;14583;43.604;1.364;2022-09-28T17:26:12;19.58;;;4.68;;
26407;SDS011;14583;43.604;1.364;2022-09-28T17:29:00;15.90;;;3.00;;
26407;SDS011;14583;43.604;1.364;2022-09-28T17:31:26;10.95;;;2.40;;
26407;SDS011;14583;43.604;1.364;2022-09-28T17:33:53;14.40;;;2.90;;
26407;SDS011;14583;43.604;1.364;2022-09-28T17:36:19;18.02;;;3.38;;
26407;SDS011;14583;43.604;1.364;2022-09-28T17:38:46;15.68;;;3.13;;
26407;SDS011;14583;43.604;1.364;2022-09-28T17:41:17;18.00;;;3.88;;
26407;SDS011;14583;43.604;1.364;2022-09-28T17:43:43;15.30;;;3.50;;
26407;SDS011;14583;43.604;1.364;2022-09-28T17:46:23;15.35;;;3.85;;
26407;SDS011;14583;43.604;1.364;2022-09-28T17:48:51;20.10;;;4.32;;
26407;SDS011;14583;43.604;1.364;2022-09-28T17:51:17;20.63;;;6.30;;
26407;SDS011;14583;43.604;1.364;2022-09-28T17:53:43;20.70;;;5.85;;
26407;SDS011;14583;43.604;1.364;2022-09-28T17:56:09;18.65;;;4.03;;
26407;SDS011;14583;43.604;1.364;2022-09-28T17:58:36;22.85;;;6.13;;
26407;SDS011;14583;43.604;1.364;2022-09-28T18:01:02;14.07;;;4.55;;
26407;SDS011;14583;43.604;1.364;2022-09-28T18:03:28;17.70;;;4.43;;
26407;SDS011;14583;43.604;1.364;2022-09-28T18:06:02;20.27;;;3.90;;
26407;SDS011;14583;43.604;1.364;2022-09-28T18:08:37;20.13;;;4.50;;
26407;SDS011;14583;43.604;1.364;2022-09-28T18:11:03;21.38;;;4.53;;
26407;SDS011;14583;43.604;1.364;2022-09-28T18:13:28;19.77;;;4.28;;
26407;SDS011;14583;43.604;1.364;2022-09-28T18:15:54;31.00;;;15.02;;
26407;SDS011;14583;43.604;1.364;2022-09-28T18:18:24;45.63;;;30.55;;
26407;SDS011;14583;43.604;1.364;2022-09-28T18:20:50;28.23;;;16.45;;
26407;SDS011;14583;43.604;1.364;2022-09-28T18:23:16;28.02;;;10.93;;
26407;SDS011;14583;43.604;1.364;2022-09-28T18:25:43;17.88;;;3.70;;
26407;SDS011;14583;43.604;1.364;2022-09-28T18:28:10;22.55;;;9.25;;
26407;SDS011;14583;43.604;1.364;2022-09-28T18:30:40;19.10;;;7.82;;
26407;SDS011;14583;43.604;1.364;2022-09-28T18:33:07;45.80;;;23.85;;